Time;durP1;ratioP1;P1;durP2;ratioP2;P2;SDS_P1;SDS_P2;PMS_P1;PMS_P2;Temp;Humidity;BMP_temperature;BMP_pressure;BME280_temperature;BME280_humidity;BME280_pressure;Samples;Min_cycle;Max_cycle;Signal;HPM_P1;HPM_P2
2023/10/21 00:02:09;;;;;;;;;;;;;;;20.82;54.77;98675.25;5042068;28;6659;-74
2023/10/21 00:04:36;;;;;;;;;;;;;;;20.83;54.99;98693.97;5041623;28;1778;-74
2023/10/21 00:07:02;;;;;;;;;;;;;;;20.82;55.03;98703.28;5038589;28;2237;-74
2023/10/21 00:09:29;;;;;;;;;;;;;;;20.81;54.67;98696.81;5040975;28;1661;-73
2023/10/21 00:11:55;;;;;;;;;;;;;;;20.81;54.97;98696.09;5039053;28;2119;-74
2023/10/21 00:14:22;;;;;;;;;;;;;;;20.81;55.08;98690.34;5037007;28;2176;-73
2023/10/21 00:16:49;;;;;;;;;;;;;;;20.80;54.97;98695.38;5039066;28;2218;-74
2023/10/21 00:19:16;;;;;;;;;;;;;;;20.79;55.05;98716.91;5040348;28;1728;-74
2023/10/21 00:21:42;;;;;;;;;;;;;;;20.78;55.08;98703.97;5040805;28;2058;-74
2023/10/21 00:24:09;;;;;;;;;;;;;;;20.79;55.16;98699.66;5039974;28;2141;-74
2023/10/21 00:26:47;;;;;;;;;;;;;;;20.79;55.01;98691.03;5038723;28;2255;-74
2023/10/21 00:29:16;;;;;;;;;;;;;;;20.78;54.86;98691.75;5041371;28;1845;-74
2023/10/21 00:31:43;;;;;;;;;;;;;;;20.78;54.92;98703.25;5022011;28;6459;-74
2023/10/21 00:34:10;;;;;;;;;;;;;;;20.77;54.91;98696.75;5041204;28;1918;-73
2023/10/21 00:36:36;;;;;;;;;;;;;;;20.77;54.91;98691.00;5039472;28;2103;-74
2023/10/21 00:39:03;;;;;;;;;;;;;;;20.75;54.91;98693.16;5007632;28;1628;-74
2023/10/21 00:41:29;;;;;;;;;;;;;;;20.75;54.82;98687.41;5039207;28;2165;-74
2023/10/21 00:43:55;;;;;;;;;;;;;;;20.75;54.81;98690.97;5039582;28;2090;-74
2023/10/21 00:46:26;;;;;;;;;;;;;;;20.76;54.98;98712.59;5023422;28;2303;-74
2023/10/21 00:48:52;;;;;;;;;;;;;;;20.75;55.05;98705.38;5040628;28;1744;-74
2023/10/21 00:51:19;;;;;;;;;;;;;;;20.73;54.99;98713.25;5021764;28;2249;-74
2023/10/21 00:53:45;;;;;;;;;;;;;;;20.73;54.95;98714.00;5024012;28;2185;-74
2023/10/21 00:56:12;;;;;;;;;;;;;;;20.72;54.82;98712.53;5043462;28;1875;-74
2023/10/21 00:58:40;;;;;;;;;;;;;;;20.72;55.02;98724.03;5042859;28;1579;-74
2023/10/21 01:01:06;;;;;;;;;;;;;;;20.73;54.82;98736.25;5042755;28;6704;-73
2023/10/21 01:03:33;;;;;;;;;;;;;;;20.72;54.97;98724.03;5027045;28;2218;-73
2023/10/21 01:05:59;;;;;;;;;;;;;;;20.72;54.83;98726.91;5043623;28;2102;-73
2023/10/21 01:08:26;;;;;;;;;;;;;;;20.72;54.91;98729.78;5043477;28;2288;-74
2023/10/21 01:10:52;;;;;;;;;;;;;;;20.71;55.13;98731.94;5026285;28;2214;-74
2023/10/21 01:13:19;;;;;;;;;;;;;;;20.70;54.82;98726.88;5042915;28;2217;-74
2023/10/21 01:15:46;;;;;;;;;;;;;;;20.70;55.18;98730.47;5043169;28;1576;-73
2023/10/21 01:18:13;;;;;;;;;;;;;;;20.70;54.96;98727.59;5031338;28;2142;-74
2023/10/21 01:20:41;;;;;;;;;;;;;;;20.70;54.90;98738.38;5043093;28;2146;-74
2023/10/21 01:23:07;;;;;;;;;;;;;;;20.68;55.09;98733.34;5043413;28;2122;-74
2023/10/21 01:25:34;;;;;;;;;;;;;;;20.69;54.90;98731.19;5026611;28;2189;-73
2023/10/21 01:28:01;;;;;;;;;;;;;;;20.69;54.90;98729.03;5040145;28;2519;-74
2023/10/21 01:30:27;;;;;;;;;;;;;;;20.67;55.00;98723.25;5020611;28;6226;-73
2023/10/21 01:32:54;;;;;;;;;;;;;;;20.67;55.00;98722.53;5041178;28;2063;-73
2023/10/21 01:35:21;;;;;;;;;;;;;;;20.68;55.09;98729.72;5026409;28;1969;-73
2023/10/21 01:37:48;;;;;;;;;;;;;;;20.66;54.95;98721.09;5044405;28;2003;-74
2023/10/21 01:40:15;;;;;;;;;;;;;;;20.66;55.16;98723.97;5025666;28;1773;-74
2023/10/21 01:42:41;;;;;;;;;;;;;;;20.66;54.98;98732.59;5042352;28;2161;-74
2023/10/21 01:45:08;;;;;;;;;;;;;;;20.66;55.02;98732.59;5041287;28;2204;-73
2023/10/21 01:47:35;;;;;;;;;;;;;;;20.65;55.11;98739.78;5042123;28;1989;-74
2023/10/21 01:50:03;;;;;;;;;;;;;;;20.65;55.30;98749.13;5040863;28;2105;-73
2023/10/21 01:52:29;;;;;;;;;;;;;;;20.65;54.91;98742.66;5042411;28;2324;-73
2023/10/21 01:54:56;;;;;;;;;;;;;;;20.65;55.00;98739.78;5039352;28;2192;-74
2023/10/21 01:57:22;;;;;;;;;;;;;;;20.65;55.10;98742.66;5041309;28;2070;-74
2023/10/21 01:59:49;;;;;;;;;;;;;;;20.63;55.01;98734.00;5041447;28;1878;-73
2023/10/21 02:02:15;;;;;;;;;;;;;;;20.63;55.00;98736.88;5024892;28;6216;-74
2023/10/21 02:04:42;;;;;;;;;;;;;;;20.64;54.96;98746.97;5025854;28;2071;-74
2023/10/21 02:07:09;;;;;;;;;;;;;;;20.63;54.95;98739.75;5042243;28;1785;-74
2023/10/21 02:09:36;;;;;;;;;;;;;;;20.62;54.96;98733.28;5041338;28;2129;-73
2023/10/21 02:12:03;;;;;;;;;;;;;;;20.61;55.09;98736.84;5042037;28;2078;-73
2023/10/21 02:14:29;;;;;;;;;;;;;;;20.60;55.02;98730.38;5021677;28;2225;-73
2023/10/21 02:16:56;;;;;;;;;;;;;;;20.60;55.29;98735.41;5039072;28;2590;-74
2023/10/21 02:19:24;;;;;;;;;;;;;;;20.62;55.09;98744.78;5022514;28;2176;-74
2023/10/21 02:21:51;;;;;;;;;;;;;;;20.61;55.10;98742.59;5022018;28;2281;-74
2023/10/21 02:24:17;;;;;;;;;;;;;;;20.59;54.99;98751.19;5041694;28;2830;-73
2023/10/21 02:26:43;;;;;;;;;;;;;;;20.60;54.97;98761.28;5025095;28;1638;-73
2023/10/21 02:29:10;;;;;;;;;;;;;;;20.59;55.24;98774.94;5043522;28;1805;-74
2023/10/21 02:31:36;;;;;;;;;;;;;;;20.60;55.25;98767.03;5039938;28;6240;-73
2023/10/21 02:34:03;;;;;;;;;;;;;;;20.60;54.92;98775.66;5038387;28;2227;-75
2023/10/21 02:36:29;;;;;;;;;;;;;;;20.59;55.16;98791.44;5040240;28;2178;-73
2023/10/21 02:38:56;;;;;;;;;;;;;;;20.61;55.17;98783.56;5031346;28;1824;-74
2023/10/21 02:41:22;;;;;;;;;;;;;;;20.61;54.90;98788.59;5043195;28;1945;-73
2023/10/21 02:43:49;;;;;;;;;;;;;;;20.62;54.83;98790.06;5022793;28;2258;-73
2023/10/21 02:46:15;;;;;;;;;;;;;;;20.63;54.97;98791.50;5041357;28;2791;-74
2023/10/21 02:48:45;;;;;;;;;;;;;;;20.64;54.75;98790.81;5039597;28;2299;-73
2023/10/21 02:51:15;;;;;;;;;;;;;;;20.66;54.65;98793.72;5019339;28;2142;-74
2023/10/21 02:53:42;;;;;;;;;;;;;;;20.68;54.92;98805.25;5019423;28;2162;-73
2023/10/21 02:56:09;;;;;;;;;;;;;;;20.68;54.67;98790.88;5041074;28;2237;-73
2023/10/21 02:58:36;;;;;;;;;;;;;;;20.69;54.83;98797.34;5042460;28;2212;-73
2023/10/21 03:01:25;;;;;;;;;;;;;;;20.70;54.72;98801.66;5039964;28;6295;-73
2023/10/21 03:03:51;;;;;;;;;;;;;;;20.69;54.61;98788.72;5040834;28;2625;-74
2023/10/21 03:06:18;;;;;;;;;;;;;;;20.71;54.93;98797.38;5022949;28;2135;-74
2023/10/21 03:08:45;;;;;;;;;;;;;;;20.70;54.77;98790.88;5041825;28;2154;-73
2023/10/21 03:11:12;;;;;;;;;;;;;;;20.70;55.03;98799.50;5023210;28;2135;-73
2023/10/21 03:13:38;;;;;;;;;;;;;;;20.70;54.89;98795.91;5023557;28;2147;-73
2023/10/21 03:16:05;;;;;;;;;;;;;;;20.70;55.10;98798.78;5041715;28;2623;-73
2023/10/21 03:18:32;;;;;;;;;;;;;;;20.71;54.95;98791.63;5039346;28;2301;-73
2023/10/21 03:20:59;;;;;;;;;;;;;;;20.71;54.86;98792.34;5040791;28;2285;-68
2023/10/21 03:23:25;;;;;;;;;;;;;;;20.69;55.21;98794.47;5038695;28;2097;-72
2023/10/21 03:25:55;;;;;;;;;;;;;;;20.70;55.05;98790.16;5020380;28;2228;-79
2023/10/21 03:28:22;;;;;;;;;;;;;;;20.68;55.05;98793.00;5023283;28;2029;-71
2023/10/21 03:30:49;;;;;;;;;;;;;;;20.73;55.24;98805.28;5040722;28;6192;-71
2023/10/21 03:33:15;;;;;;;;;;;;;;;20.73;55.28;98806.03;5041174;28;2073;-72
2023/10/21 03:35:54;;;;;;;;;;;;;;;20.73;55.31;98811.78;5024413;28;2323;-71
2023/10/21 03:38:21;;;;;;;;;;;;;;;20.76;55.38;98826.91;5024362;28;1670;-71
2023/10/21 03:40:54;;;;;;;;;;;;;;;20.76;55.27;98821.88;5040141;28;2231;-72
2023/10/21 03:43:21;;;;;;;;;;;;;;;20.76;55.50;98827.63;5024568;28;1734;-71
2023/10/21 03:45:47;;;;;;;;;;;;;;;20.76;55.58;98810.38;5019096;28;2157;-71
2023/10/21 03:48:14;;;;;;;;;;;;;;;20.77;55.60;98811.81;5040245;28;1570;-71
2023/10/21 03:50:40;;;;;;;;;;;;;;;20.77;55.36;98806.06;5041725;28;2071;-71
2023/10/21 03:53:07;;;;;;;;;;;;;;;20.76;55.66;98813.25;5041867;28;1717;-71
2023/10/21 03:55:33;;;;;;;;;;;;;;;20.76;55.66;98801.75;5040563;28;2126;-72
2023/10/21 03:57:59;;;;;;;;;;;;;;;20.77;55.45;98806.06;5041158;28;1578;-71
2023/10/21 04:00:26;;;;;;;;;;;;;;;20.77;55.51;98793.81;5039075;28;6362;-71
2023/10/21 04:02:52;;;;;;;;;;;;;;;20.77;55.75;98797.41;5041422;28;2091;-72
2023/10/21 04:05:19;;;;;;;;;;;;;;;20.78;55.48;98796.00;5040181;28;2129;-71
2023/10/21 04:07:45;;;;;;;;;;;;;;;20.78;55.74;98795.28;5023556;28;2496;-71
2023/10/21 04:10:12;;;;;;;;;;;;;;;20.80;55.70;98803.91;5040202;28;2024;-71
2023/10/21 04:12:40;;;;;;;;;;;;;;;20.79;55.62;98808.94;5042176;28;1574;-71
2023/10/21 04:15:08;;;;;;;;;;;;;;;20.80;55.50;98813.28;5038699;28;2153;-71
2023/10/21 04:17:36;;;;;;;;;;;;;;;20.80;56.12;98821.94;5040810;28;1864;-71
2023/10/21 04:20:03;;;;;;;;;;;;;;;20.80;55.68;98833.44;5039375;28;1728;-71
2023/10/21 04:22:30;;;;;;;;;;;;;;;20.80;55.60;98833.44;5040121;28;2149;-71
2023/10/21 04:24:56;;;;;;;;;;;;;;;20.80;55.85;98839.19;5038658;28;2169;-72
2023/10/21 04:27:22;;;;;;;;;;;;;;;20.79;55.71;98842.75;5040071;28;2423;-72
2023/10/21 04:29:49;;;;;;;;;;;;;;;20.79;56.08;98837.72;5041781;28;2184;-72
2023/10/21 04:32:15;;;;;;;;;;;;;;;20.79;55.81;98831.97;5042729;28;6165;-71
2023/10/21 04:34:42;;;;;;;;;;;;;;;20.79;56.17;98822.63;5044492;28;1976;-71
2023/10/21 04:37:08;;;;;;;;;;;;;;;20.80;55.81;98821.94;5044439;28;1886;-71
2023/10/21 04:39:35;;;;;;;;;;;;;;;20.81;56.03;98834.16;5044389;28;2200;-71
2023/10/21 04:42:01;;;;;;;;;;;;;;;20.81;55.75;98837.75;5043295;28;2228;-71
2023/10/21 04:44:28;;;;;;;;;;;;;;;20.82;55.69;98830.56;5044744;28;1694;-71
2023/10/21 04:46:54;;;;;;;;;;;;;;;20.82;55.73;98833.47;5042689;28;2070;-71
2023/10/21 04:49:20;;;;;;;;;;;;;;;20.82;55.56;98830.56;5043849;28;1849;-71
2023/10/21 04:51:47;;;;;;;;;;;;;;;20.83;56.14;98837.78;5041788;28;2145;-71
2023/10/21 04:54:13;;;;;;;;;;;;;;;20.83;56.09;98837.06;5044629;28;1914;-71
2023/10/21 04:56:40;;;;;;;;;;;;;;;20.82;55.90;98833.47;5044210;28;1646;-71
2023/10/21 04:59:06;;;;;;;;;;;;;;;20.82;56.13;98830.56;5045419;28;1661;-71
2023/10/21 05:01:32;;;;;;;;;;;;;;;20.81;55.96;98829.13;5042229;28;6114;-71
2023/10/21 05:03:59;;;;;;;;;;;;;;;20.82;56.17;98824.09;5043703;28;2000;-71
2023/10/21 05:06:26;;;;;;;;;;;;;;;20.81;55.86;98829.13;5045157;28;1956;-71
2023/10/21 05:08:52;;;;;;;;;;;;;;;20.82;56.16;98824.09;5044103;28;1556;-72
2023/10/21 05:11:19;;;;;;;;;;;;;;;20.82;56.24;98824.09;5041817;28;2129;-72
2023/10/21 05:13:45;;;;;;;;;;;;;;;20.80;56.29;98827.69;5045461;28;1630;-71
2023/10/21 05:16:11;;;;;;;;;;;;;;;20.83;56.09;98837.78;5043215;28;1909;-72
2023/10/21 05:18:38;;;;;;;;;;;;;;;20.84;56.00;98850.72;5043486;28;2053;-72
2023/10/21 05:21:08;;;;;;;;;;;;;;;20.84;55.80;98853.59;5044307;28;2069;-72
2023/10/21 05:23:34;;;;;;;;;;;;;;;20.86;55.61;98865.13;5026139;28;2075;-71
2023/10/21 05:26:01;;;;;;;;;;;;;;;20.84;56.28;98847.13;5045025;28;1699;-71
2023/10/21 05:28:27;;;;;;;;;;;;;;;20.83;56.06;98840.66;5043687;28;2067;-72
2023/10/21 05:30:53;;;;;;;;;;;;;;;20.83;56.00;98837.78;5043115;28;6293;-71
2023/10/21 05:33:20;;;;;;;;;;;;;;;20.84;56.09;98836.34;5038743;28;2161;-71
2023/10/21 05:35:47;;;;;;;;;;;;;;;20.84;55.92;98841.38;5044418;28;1910;-72
2023/10/21 05:38:13;;;;;;;;;;;;;;;20.85;55.83;98857.22;5042619;28;2137;-71
2023/10/21 05:40:40;;;;;;;;;;;;;;;20.85;56.07;98852.19;5043345;28;1996;-72
2023/10/21 05:43:07;;;;;;;;;;;;;;;20.83;56.18;98860.78;5043794;28;2094;-72
2023/10/21 05:45:33;;;;;;;;;;;;;;;20.83;56.16;98860.78;5042908;28;2106;-71
2023/10/21 05:48:00;;;;;;;;;;;;;;;20.84;55.97;98878.75;5041753;28;2240;-71
2023/10/21 05:50:26;;;;;;;;;;;;;;;20.84;56.11;98879.47;5041677;28;2360;-72
2023/10/21 05:52:53;;;;;;;;;;;;;;;20.85;55.82;98880.22;5037478;28;2165;-71
2023/10/21 05:55:19;;;;;;;;;;;;;;;20.85;56.12;98886.69;5040251;28;2142;-71
2023/10/21 05:57:46;;;;;;;;;;;;;;;20.86;56.00;98893.16;5039653;28;2198;-72
2023/10/21 06:00:13;;;;;;;;;;;;;;;20.86;55.80;98893.88;5038056;28;6051;-71
2023/10/21 06:02:39;;;;;;;;;;;;;;;20.86;56.21;98893.88;5035281;28;2591;-71
2023/10/21 06:05:06;;;;;;;;;;;;;;;20.86;56.05;98899.66;5039651;28;2182;-71
2023/10/21 06:07:33;;;;;;;;;;;;;;;20.87;56.22;98891.75;5036366;28;2415;-71
2023/10/21 06:09:59;;;;;;;;;;;;;;;20.86;56.03;98893.88;5037973;28;2137;-71
2023/10/21 06:12:26;;;;;;;;;;;;;;;20.86;56.26;98893.16;5039406;28;2141;-72
2023/10/21 06:14:53;;;;;;;;;;;;;;;20.84;56.03;98885.22;5041144;28;2097;-72
2023/10/21 06:17:20;;;;;;;;;;;;;;;20.85;56.07;98891.72;5039868;28;2012;-71
2023/10/21 06:19:46;;;;;;;;;;;;;;;20.84;56.31;98902.50;5039770;28;2061;-71
2023/10/21 06:22:13;;;;;;;;;;;;;;;20.85;56.03;98903.97;5040650;28;2160;-72
2023/10/21 06:24:39;;;;;;;;;;;;;;;20.85;55.92;98909.72;5039832;28;2148;-71
2023/10/21 06:27:07;;;;;;;;;;;;;;;20.85;56.29;98909.00;5040851;28;1650;-71
2023/10/21 06:29:34;;;;;;;;;;;;;;;20.86;55.96;98904.69;5039414;28;2264;-71
2023/10/21 06:32:04;;;;;;;;;;;;;;;20.88;56.16;98916.22;5039840;28;6259;-72
2023/10/21 06:34:30;;;;;;;;;;;;;;;20.87;56.13;98918.38;5019871;28;2283;-71
2023/10/21 06:36:56;;;;;;;;;;;;;;;20.87;56.19;98911.91;5036975;28;2144;-71
2023/10/21 06:39:23;;;;;;;;;;;;;;;20.88;56.04;98901.84;5038960;28;2094;-72
2023/10/21 06:41:49;;;;;;;;;;;;;;;20.88;56.06;98913.34;5036884;28;2214;-71
2023/10/21 06:44:16;;;;;;;;;;;;;;;20.85;56.34;98915.47;5032070;28;2328;-72
2023/10/21 06:46:42;;;;;;;;;;;;;;;21.00;56.03;98910.59;5036712;28;2252;-67
2023/10/21 06:49:09;;;;;;;;;;;;;;;21.14;56.13;98918.69;5038784;28;1931;-69
2023/10/21 06:51:36;;;;;;;;;;;;;;;21.08;56.16;98919.34;5039340;28;2114;-67
2023/10/21 06:54:08;;;;;;;;;;;;;;;21.07;56.10;98929.44;5027410;28;4227;-71
2023/10/21 06:56:35;;;;;;;;;;;;;;;21.36;55.63;98934.78;5035806;28;2789;-71
2023/10/21 06:59:02;;;;;;;;;;;;;;;21.26;55.74;98944.75;5036199;28;2450;-71
2023/10/21 07:01:29;;;;;;;;;;;;;;;21.18;55.76;98943.94;5039440;28;6085;-68
2023/10/21 07:03:55;;;;;;;;;;;;;;;21.18;55.85;98944.66;5039191;28;2266;-70
2023/10/21 07:06:22;;;;;;;;;;;;;;;21.16;55.94;98953.25;5036729;28;2316;-70
2023/10/21 07:08:48;;;;;;;;;;;;;;;21.20;55.64;98964.09;5039652;28;2207;-70
2023/10/21 07:11:14;;;;;;;;;;;;;;;21.19;56.04;98962.63;5040772;28;1828;-70
2023/10/21 07:13:42;;;;;;;;;;;;;;;21.13;55.74;98955.38;5036699;28;2221;-72
2023/10/21 07:16:10;;;;;;;;;;;;;;;21.20;55.94;98964.81;5039071;28;2303;-72
2023/10/21 07:18:37;;;;;;;;;;;;;;;21.19;55.63;98963.38;5043152;28;1707;-70
2023/10/21 07:21:04;;;;;;;;;;;;;;;21.10;56.02;98967.59;5043394;28;2193;-77
2023/10/21 07:23:31;;;;;;;;;;;;;;;20.08;53.34;98963.84;5025661;28;1670;-78
2023/10/21 07:25:57;;;;;;;;;;;;;;;19.59;52.22;98983.75;5018586;28;1988;-75
2023/10/21 07:28:24;;;;;;;;;;;;;;;19.36;52.33;98984.72;5042506;28;2136;-79
2023/10/21 07:30:52;;;;;;;;;;;;;;;19.49;51.51;98979.94;5039596;28;6042;-72
2023/10/21 07:33:18;;;;;;;;;;;;;;;19.87;51.07;98977.13;5039864;28;2672;-72
2023/10/21 07:35:48;;;;;;;;;;;;;;;20.26;50.94;98974.94;5039809;28;2118;-72
2023/10/21 07:38:14;;;;;;;;;;;;;;;20.49;50.74;98985.34;5040487;28;2146;-72
2023/10/21 07:40:40;;;;;;;;;;;;;;;20.63;51.03;98984.16;5043153;28;1670;-71
2023/10/21 07:43:07;;;;;;;;;;;;;;;20.68;51.29;98977.03;5041631;28;1623;-72
2023/10/21 07:45:33;;;;;;;;;;;;;;;20.74;52.19;98985.78;5030339;28;1733;-71
2023/10/21 07:48:00;;;;;;;;;;;;;;;20.77;53.52;98978.63;5040484;28;2230;-72
2023/10/21 07:50:26;;;;;;;;;;;;;;;20.81;53.66;98978.69;5038844;28;2343;-72
2023/10/21 07:52:53;;;;;;;;;;;;;;;20.82;53.68;98983.03;5041397;28;2110;-71
2023/10/21 07:55:19;;;;;;;;;;;;;;;20.85;53.98;98980.91;5040270;28;2168;-72
2023/10/21 07:57:46;;;;;;;;;;;;;;;20.87;54.24;98984.53;5040208;28;2118;-72
2023/10/21 08:00:13;;;;;;;;;;;;;;;20.89;54.12;98993.19;5040673;28;6094;-72
2023/10/21 08:02:41;;;;;;;;;;;;;;;20.89;54.52;98995.31;5039930;28;2395;-72
2023/10/21 08:05:08;;;;;;;;;;;;;;;20.91;54.21;98996.09;5041404;28;1637;-72
2023/10/21 08:07:34;;;;;;;;;;;;;;;20.92;54.02;99000.41;5039930;28;1809;-72
2023/10/21 08:10:02;;;;;;;;;;;;;;;20.93;54.33;99007.63;5037411;28;2118;-77
2023/10/21 08:12:28;;;;;;;;;;;;;;;20.37;53.06;99005.28;5039016;28;2279;-72
2023/10/21 08:14:55;;;;;;;;;;;;;;;20.27;53.24;99010.84;5040861;28;2138;-72
2023/10/21 08:17:22;;;;;;;;;;;;;;;20.51;52.77;99007.69;5038339;28;2101;-72
2023/10/21 08:19:48;;;;;;;;;;;;;;;20.66;53.08;99020.16;5038617;28;2173;-72
2023/10/21 08:22:15;;;;;;;;;;;;;;;20.67;53.64;99015.88;5038883;28;2146;-73
2023/10/21 08:24:41;;;;;;;;;;;;;;;20.55;53.85;99027.13;5036230;28;2188;-71
2023/10/21 08:27:08;;;;;;;;;;;;;;;20.67;53.41;99033.13;5037748;28;2353;-71
2023/10/21 08:29:34;;;;;;;;;;;;;;;20.76;53.29;99031.81;5036630;28;2106;-71
2023/10/21 08:32:01;;;;;;;;;;;;;;;20.80;53.46;99042.66;5038015;28;6165;-71
2023/10/21 08:34:28;;;;;;;;;;;;;;;20.85;53.85;99047.06;5039106;28;2196;-71
2023/10/21 08:36:54;;;;;;;;;;;;;;;20.82;53.96;99040.56;5040613;28;1918;-71
2023/10/21 08:39:21;;;;;;;;;;;;;;;20.89;54.94;99044.22;5036962;28;2224;-71
2023/10/21 08:41:47;;;;;;;;;;;;;;;21.10;54.39;99043.13;5041095;28;2255;-72
2023/10/21 08:44:14;;;;;;;;;;;;;;;21.31;54.88;99049.88;5023806;28;2349;-71
2023/10/21 08:46:41;;;;;;;;;;;;;;;21.32;54.44;99051.31;5023389;28;1752;-69
2023/10/21 08:49:07;;;;;;;;;;;;;;;21.28;54.22;99051.28;5025431;28;1673;-69
2023/10/21 08:51:34;;;;;;;;;;;;;;;21.31;54.32;99049.88;5023785;28;2199;-67
2023/10/21 08:54:03;;;;;;;;;;;;;;;21.36;54.15;99067.22;5039861;28;2175;-72
2023/10/21 08:56:30;;;;;;;;;;;;;;;21.33;54.31;99063.59;5039457;28;1922;-68
2023/10/21 08:58:57;;;;;;;;;;;;;;;21.31;53.95;99072.91;5040481;28;2227;-68
2023/10/21 09:01:24;;;;;;;;;;;;;;;21.31;54.31;99064.28;5027633;28;6196;-69
2023/10/21 09:03:50;;;;;;;;;;;;;;;21.29;54.22;99067.13;5040577;28;3543;-68
2023/10/21 09:06:20;;;;;;;;;;;;;;;21.26;54.34;99070.69;5032516;28;2827;-68
2023/10/21 09:08:47;;;;;;;;;;;;;;;21.24;54.03;99068.50;5041012;28;2133;-67
2023/10/21 09:11:15;;;;;;;;;;;;;;;21.43;53.90;99074.53;5020997;28;2934;-77
2023/10/21 09:13:41;;;;;;;;;;;;;;;21.43;54.08;99071.66;5017034;28;4242;-69
2023/10/21 09:16:19;;;;;;;;;;;;;;;21.45;54.15;99072.41;5034571;28;2436;-69
2023/10/21 09:18:55;;;;;;;;;;;;;;;21.57;53.95;99086.25;5041973;28;2422;-70
2023/10/21 09:21:32;;;;;;;;;;;;;;;21.50;53.80;99094.06;5043174;28;2517;-69
2023/10/21 09:24:11;;;;;;;;;;;;;;;21.62;53.76;99087.75;5038795;28;1713;-68
2023/10/21 09:26:38;;;;;;;;;;;;;;;21.68;53.15;99090.72;5044273;28;1714;-69
2023/10/21 09:29:11;;;;;;;;;;;;;;;21.67;53.64;99095.03;5040498;28;2449;-68
2023/10/21 09:31:41;;;;;;;;;;;;;;;21.45;53.63;99100.50;5035135;28;6503;-71
2023/10/21 09:34:07;;;;;;;;;;;;;;;21.31;53.43;99095.22;5043157;28;2567;-68
2023/10/21 09:36:40;;;;;;;;;;;;;;;21.19;53.92;99101.53;5043694;28;1926;-68
2023/10/21 09:39:06;;;;;;;;;;;;;;;21.12;54.48;99091.34;5044527;28;1829;-69
2023/10/21 09:41:33;;;;;;;;;;;;;;;21.09;54.40;99110.00;5042060;28;2181;-68
2023/10/21 09:43:59;;;;;;;;;;;;;;;21.09;54.26;99110.00;5027337;28;2480;-68
2023/10/21 09:46:28;;;;;;;;;;;;;;;21.08;54.25;99099.94;5026728;28;1821;-69
2023/10/21 09:48:54;;;;;;;;;;;;;;;21.07;54.37;99107.09;5026997;28;2091;-68
2023/10/21 09:51:21;;;;;;;;;;;;;;;21.05;54.42;99121.44;5024529;28;2134;-69
2023/10/21 09:53:47;;;;;;;;;;;;;;;21.03;54.34;99109.94;5027732;28;1614;-68
2023/10/21 09:56:17;;;;;;;;;;;;;;;21.04;54.57;99120.72;5042791;28;2174;-69
2023/10/21 09:58:44;;;;;;;;;;;;;;;21.04;54.59;99132.22;5027935;28;1634;-69
2023/10/21 10:01:13;;;;;;;;;;;;;;;21.04;54.38;99126.47;5043110;28;6222;-68
2023/10/21 10:03:39;;;;;;;;;;;;;;;21.04;54.40;99131.50;5041789;28;2098;-69
2023/10/21 10:06:06;;;;;;;;;;;;;;;21.05;54.29;99127.19;5023488;28;2329;-69
2023/10/21 10:08:33;;;;;;;;;;;;;;;21.03;54.52;99124.31;5025802;28;2201;-69
2023/10/21 10:11:02;;;;;;;;;;;;;;;21.05;54.12;99127.19;5044201;28;2213;-69
2023/10/21 10:13:28;;;;;;;;;;;;;;;21.04;54.57;99126.47;5025178;28;2131;-69
2023/10/21 10:15:55;;;;;;;;;;;;;;;21.03;54.17;99139.41;5043722;28;1986;-69
2023/10/21 10:18:23;;;;;;;;;;;;;;;21.01;54.59;99141.53;5025454;28;1611;-68
2023/10/21 10:20:51;;;;;;;;;;;;;;;21.00;54.56;99143.66;5041152;28;2114;-69
2023/10/21 10:23:17;;;;;;;;;;;;;;;20.99;54.55;99141.50;5027050;28;1820;-69
2023/10/21 10:25:44;;;;;;;;;;;;;;;21.00;54.68;99146.53;5042834;28;1696;-69
2023/10/21 10:28:17;;;;;;;;;;;;;;;21.01;54.75;99147.28;5042621;28;1626;-69
2023/10/21 10:30:44;;;;;;;;;;;;;;;20.99;54.41;99142.22;5040904;28;6200;-69
2023/10/21 10:33:22;;;;;;;;;;;;;;;20.99;54.60;99147.25;5043137;28;2169;-69
2023/10/21 10:35:50;;;;;;;;;;;;;;;20.98;54.51;99152.28;5044317;28;2391;-69
2023/10/21 10:38:20;;;;;;;;;;;;;;;20.92;54.87;99150.03;5040458;28;2149;-69
2023/10/21 10:40:47;;;;;;;;;;;;;;;20.92;54.74;99155.78;5026886;28;2125;-70
2023/10/21 10:43:13;;;;;;;;;;;;;;;20.93;54.85;99154.34;5041511;28;2523;-70
2023/10/21 10:45:40;;;;;;;;;;;;;;;20.97;54.84;99167.38;5044565;28;1805;-69
2023/10/21 10:48:11;;;;;;;;;;;;;;;20.98;54.81;99171.69;5025804;28;2106;-69
2023/10/21 10:50:38;;;;;;;;;;;;;;;20.97;55.06;99173.13;5043571;28;1793;-70
2023/10/21 10:53:14;;;;;;;;;;;;;;;20.98;55.08;99180.31;5042898;28;1637;-69
2023/10/21 10:55:42;;;;;;;;;;;;;;;21.00;55.26;99186.09;5043067;28;1914;-69
2023/10/21 10:58:10;;;;;;;;;;;;;;;21.00;55.54;99186.84;5039186;28;2277;-67
2023/10/21 11:00:39;;;;;;;;;;;;;;;21.04;56.03;99191.94;5023321;28;6475;-67
2023/10/21 11:03:06;;;;;;;;;;;;;;;21.03;56.56;99199.13;5041029;28;2106;-67
2023/10/21 11:05:33;;;;;;;;;;;;;;;21.03;56.69;99204.88;5039787;28;2283;-67
2023/10/21 11:07:59;;;;;;;;;;;;;;;21.02;56.64;99197.66;5042955;28;1706;-67
2023/10/21 11:10:26;;;;;;;;;;;;;;;21.03;56.82;99222.16;5040847;28;2046;-67
2023/10/21 11:12:52;;;;;;;;;;;;;;;21.03;56.93;99213.50;5042802;28;2142;-67
2023/10/21 11:15:19;;;;;;;;;;;;;;;21.04;56.90;99226.47;5042926;28;1864;-67
2023/10/21 11:17:48;;;;;;;;;;;;;;;21.01;56.81;99222.09;5043079;28;1922;-67
2023/10/21 11:20:15;;;;;;;;;;;;;;;21.02;56.83;99223.56;5042413;28;1798;-67
2023/10/21 11:22:41;;;;;;;;;;;;;;;21.01;56.60;99230.75;5043004;28;2118;-67
2023/10/21 11:25:08;;;;;;;;;;;;;;;21.00;57.04;99241.50;5043341;28;1797;-67
2023/10/21 11:27:35;;;;;;;;;;;;;;;21.01;56.89;99236.50;5041891;28;1646;-67
2023/10/21 11:30:04;;;;;;;;;;;;;;;21.00;57.07;99247.25;5042846;28;1591;-67
2023/10/21 11:32:34;;;;;;;;;;;;;;;21.00;56.81;99252.28;5040386;28;5942;-67
2023/10/21 11:35:02;;;;;;;;;;;;;;;21.01;56.74;99253.75;5040469;28;2232;-67
2023/10/21 11:37:29;;;;;;;;;;;;;;;21.01;57.01;99262.41;5040432;28;2188;-67
2023/10/21 11:39:56;;;;;;;;;;;;;;;21.00;56.95;99258.78;5039780;28;2130;-67
2023/10/21 11:42:22;;;;;;;;;;;;;;;20.99;57.03;99265.22;5042455;28;2343;-67
2023/10/21 11:44:59;;;;;;;;;;;;;;;21.01;57.02;99268.16;5022278;28;2300;-67
2023/10/21 11:47:26;;;;;;;;;;;;;;;21.01;56.80;99276.78;5041609;28;1828;-67
2023/10/21 11:49:52;;;;;;;;;;;;;;;21.01;56.95;99288.28;5040828;28;2185;-66
2023/10/21 11:52:19;;;;;;;;;;;;;;;21.01;56.65;99294.03;5041928;28;1917;-67
2023/10/21 11:55:07;;;;;;;;;;;;;;;21.02;56.75;99292.63;5042349;28;1615;-67
2023/10/21 11:57:41;;;;;;;;;;;;;;;21.01;56.97;99305.56;5042394;28;1926;-67
2023/10/21 12:13:53;;;;;;;;;;;;;;;20.99;56.76;99349.41;5041461;28;1651;-67
2023/10/21 12:25:09;;;;;;;;;;;;;;;20.99;56.76;99354.44;5015862;28;2048;-67
2023/10/21 12:28:14;;;;;;;;;;;;;;;21.05;56.79;99360.28;5038917;28;2178;-67
2023/10/21 12:30:44;;;;;;;;;;;;;;;21.03;56.65;99357.41;5041256;28;6199;-67
2023/10/21 12:38:40;;;;;;;;;;;;;;;21.01;56.45;99368.88;5040334;28;2121;-67
2023/10/21 12:41:16;;;;;;;;;;;;;;;21.05;56.51;99368.94;5040558;28;1609;-67
2023/10/21 12:43:47;;;;;;;;;;;;;;;21.08;56.38;99374.03;5039951;28;2137;-67
2023/10/21 12:46:20;;;;;;;;;;;;;;;21.09;56.44;99375.50;5041500;28;2126;-67
2023/10/21 12:48:51;;;;;;;;;;;;;;;21.07;56.47;99377.59;5040575;28;2380;-67
2023/10/21 12:51:19;;;;;;;;;;;;;;;21.04;56.57;99379.00;5040003;28;2164;-68
2023/10/21 12:53:45;;;;;;;;;;;;;;;21.06;56.50;99387.66;5040902;28;2395;-67
2023/10/21 12:56:13;;;;;;;;;;;;;;;21.07;56.31;99389.09;5045084;28;2051;-67
2023/10/21 12:58:42;;;;;;;;;;;;;;;21.01;56.26;99389.00;5043334;28;1785;-67
2023/10/21 13:01:14;;;;;;;;;;;;;;;21.06;56.56;99393.41;5043564;28;6171;-67
2023/10/21 13:03:41;;;;;;;;;;;;;;;21.08;56.35;99399.22;5045345;28;1618;-67
2023/10/21 13:06:08;;;;;;;;;;;;;;;21.09;56.13;99406.41;5028090;28;1612;-67
2023/10/21 13:08:35;;;;;;;;;;;;;;;21.04;56.35;99411.38;5044012;28;1646;-67
2023/10/21 13:11:02;;;;;;;;;;;;;;;21.05;56.20;99415.72;5043441;28;2125;-67
2023/10/21 13:13:28;;;;;;;;;;;;;;;21.04;56.46;99425.03;5042943;28;2246;-67
2023/10/21 13:15:55;;;;;;;;;;;;;;;21.04;56.44;99427.91;5043070;28;2181;-67
2023/10/21 13:18:21;;;;;;;;;;;;;;;21.01;56.59;99432.91;5044836;28;2209;-67
2023/10/21 13:20:48;;;;;;;;;;;;;;;21.02;56.53;99430.75;5043889;28;2193;-68
2023/10/21 13:23:15;;;;;;;;;;;;;;;21.00;56.54;99437.19;5042405;28;2177;-70
2023/10/21 13:25:41;;;;;;;;;;;;;;;20.91;56.51;99436.28;5037651;28;2193;-68
2023/10/21 13:28:07;;;;;;;;;;;;;;;20.86;56.52;99431.84;5024805;28;2187;-68